LFRK/CFR METAR and TAF weather

Enter ICAO airport designator
Station Type Date Time Source
LFRK METAR 2022/06/28 09:30 UTC NOAA

LFRK 280930Z AUTO 20009KT 150V250 9999 SCT047 20/09 Q1019 NOSIG


Station Type Date Time Source
LFRK Decoded METAR 2022/06/28 09:30 UTC NOAA

Caen, France (LFRK) 49-11N 000-27W 67M
Jun 28, 2022 - 05:30 AM EDT / 2022.06.28 0930 UTC
Wind: from the SSW (200 degrees) at 10 MPH (9 KT) (direction variable):0
Visibility: greater than 7 mile(s):0
Sky conditions: partly cloudy
Temperature: 68 F (20 C)
Dew Point: 48 F (9 C)
Relative Humidity: 49%
Pressure (altimeter): 30.09 in. Hg (1019 hPa)
ob: LFRK 280930Z AUTO 20009KT 150V250 9999 SCT047 20/09 Q1019 NOSIG
cycle: 9

Station Type Date Time Source
LFRK TAF 2020/06/02 06:24 UTC NOAA

TAF LFRK 020500Z 0206/0306 33004KT CAVOK

Example: see airport list